sensor_id;sensor_type;location;lat;lon;timestamp;temperature;humidity
13049;DHT22;6591;51.446;5.404;2023-07-20T00:01:54;17.30;99.90
13049;DHT22;6591;51.446;5.404;2023-07-20T00:04:22;18.50;99.90
13049;DHT22;6591;51.446;5.404;2023-07-20T00:06:49;18.60;99.90
13049;DHT22;6591;51.446;5.404;2023-07-20T00:09:16;18.40;99.90
13049;DHT22;6591;51.446;5.404;2023-07-20T00:11:49;19.30;99.90
13049;DHT22;6591;51.446;5.404;2023-07-20T00:14:18;18.20;99.90
13049;DHT22;6591;51.446;5.404;2023-07-20T00:16:46;18.10;99.90
13049;DHT22;6591;51.446;5.404;2023-07-20T00:19:13;18.90;99.90
13049;DHT22;6591;51.446;5.404;2023-07-20T00:21:40;17.90;99.90
13049;DHT22;6591;51.446;5.404;2023-07-20T00:24:09;17.90;99.90
13049;DHT22;6591;51.446;5.404;2023-07-20T00:26:36;17.80;99.90
13049;DHT22;6591;51.446;5.404;2023-07-20T00:29:03;17.70;99.90
13049;DHT22;6591;51.446;5.404;2023-07-20T00:31:30;17.70;99.90
13049;DHT22;6591;51.446;5.404;2023-07-20T00:33:58;17.60;99.90
13049;DHT22;6591;51.446;5.404;2023-07-20T00:36:25;17.50;99.90
13049;DHT22;6591;51.446;5.404;2023-07-20T00:38:52;17.50;99.90
13049;DHT22;6591;51.446;5.404;2023-07-20T00:41:18;17.50;99.90
13049;DHT22;6591;51.446;5.404;2023-07-20T00:43:46;17.80;99.90
13049;DHT22;6591;51.446;5.404;2023-07-20T00:46:14;17.40;99.90
13049;DHT22;6591;51.446;5.404;2023-07-20T00:48:41;17.30;99.90
13049;DHT22;6591;51.446;5.404;2023-07-20T00:51:10;17.30;99.90
13049;DHT22;6591;51.446;5.404;2023-07-20T00:53:38;17.20;99.90
13049;DHT22;6591;51.446;5.404;2023-07-20T00:56:06;17.20;99.90
13049;DHT22;6591;51.446;5.404;2023-07-20T00:58:35;17.50;99.90
13049;DHT22;6591;51.446;5.404;2023-07-20T01:01:02;18.40;99.90
13049;DHT22;6591;51.446;5.404;2023-07-20T01:03:30;17.10;99.90
13049;DHT22;6591;51.446;5.404;2023-07-20T01:06:07;19.10;99.90
13049;DHT22;6591;51.446;5.404;2023-07-20T01:08:57;17.00;99.90
13049;DHT22;6591;51.446;5.404;2023-07-20T01:12:07;17.20;99.90
13049;DHT22;6591;51.446;5.404;2023-07-20T01:14:40;15.20;99.90
13049;DHT22;6591;51.446;5.404;2023-07-20T01:17:08;17.40;99.90
13049;DHT22;6591;51.446;5.404;2023-07-20T01:19:35;16.90;99.90
13049;DHT22;6591;51.446;5.404;2023-07-20T01:25:15;16.70;99.90
13049;DHT22;6591;51.446;5.404;2023-07-20T01:33:19;16.70;99.90
13049;DHT22;6591;51.446;5.404;2023-07-20T01:35:54;16.90;99.90
13049;DHT22;6591;51.446;5.404;2023-07-20T01:38:24;16.70;99.90
13049;DHT22;6591;51.446;5.404;2023-07-20T01:40:53;15.30;99.90
13049;DHT22;6591;51.446;5.404;2023-07-20T01:43:27;16.60;99.90
13049;DHT22;6591;51.446;5.404;2023-07-20T01:45:54;16.60;99.90
13049;DHT22;6591;51.446;5.404;2023-07-20T01:48:26;16.60;99.90
13049;DHT22;6591;51.446;5.404;2023-07-20T01:50:57;16.60;99.90
13049;DHT22;6591;51.446;5.404;2023-07-20T01:53:45;15.20;99.90
13049;DHT22;6591;51.446;5.404;2023-07-20T01:56:17;17.80;99.90
13049;DHT22;6591;51.446;5.404;2023-07-20T01:58:53;16.70;99.90
13049;DHT22;6591;51.446;5.404;2023-07-20T02:01:24;16.70;99.90
13049;DHT22;6591;51.446;5.404;2023-07-20T02:03:58;16.70;99.90
13049;DHT22;6591;51.446;5.404;2023-07-20T02:06:25;17.70;99.90
13049;DHT22;6591;51.446;5.404;2023-07-20T02:08:57;16.90;99.90
13049;DHT22;6591;51.446;5.404;2023-07-20T02:11:24;16.30;99.90
13049;DHT22;6591;51.446;5.404;2023-07-20T02:13:52;17.00;99.90
13049;DHT22;6591;51.446;5.404;2023-07-20T02:16:28;15.70;99.90
13049;DHT22;6591;51.446;5.404;2023-07-20T02:18:56;18.10;99.90
13049;DHT22;6591;51.446;5.404;2023-07-20T02:21:27;15.90;99.90
13049;DHT22;6591;51.446;5.404;2023-07-20T02:24:03;17.30;99.90
13049;DHT22;6591;51.446;5.404;2023-07-20T02:26:31;17.30;99.90
13049;DHT22;6591;51.446;5.404;2023-07-20T02:28:58;17.80;99.90
13049;DHT22;6591;51.446;5.404;2023-07-20T02:31:25;17.50;99.90
13049;DHT22;6591;51.446;5.404;2023-07-20T02:33:52;18.70;99.90
13049;DHT22;6591;51.446;5.404;2023-07-20T02:36:19;17.60;99.90
13049;DHT22;6591;51.446;5.404;2023-07-20T02:38:49;17.70;99.90
13049;DHT22;6591;51.446;5.404;2023-07-20T02:41:16;17.70;99.90
13049;DHT22;6591;51.446;5.404;2023-07-20T02:43:43;18.30;99.90
13049;DHT22;6591;51.446;5.404;2023-07-20T02:46:11;18.50;99.90
13049;DHT22;6591;51.446;5.404;2023-07-20T02:48:39;19.10;99.90
13049;DHT22;6591;51.446;5.404;2023-07-20T02:51:08;18.30;99.90
13049;DHT22;6591;51.446;5.404;2023-07-20T02:53:35;17.80;99.90
13049;DHT22;6591;51.446;5.404;2023-07-20T02:56:03;17.80;99.90
13049;DHT22;6591;51.446;5.404;2023-07-20T02:58:30;17.80;99.90
13049;DHT22;6591;51.446;5.404;2023-07-20T03:00:57;18.40;99.90
13049;DHT22;6591;51.446;5.404;2023-07-20T03:03:24;17.80;99.90
13049;DHT22;6591;51.446;5.404;2023-07-20T03:05:51;18.10;99.90
13049;DHT22;6591;51.446;5.404;2023-07-20T03:08:21;17.80;99.90
13049;DHT22;6591;51.446;5.404;2023-07-20T03:10:49;17.90;99.90
13049;DHT22;6591;51.446;5.404;2023-07-20T03:13:18;17.80;99.90
13049;DHT22;6591;51.446;5.404;2023-07-20T03:15:52;17.70;99.90
13049;DHT22;6591;51.446;5.404;2023-07-20T03:18:22;17.90;99.90
13049;DHT22;6591;51.446;5.404;2023-07-20T03:20:49;17.90;99.90
13049;DHT22;6591;51.446;5.404;2023-07-20T03:23:23;19.40;99.90
13049;DHT22;6591;51.446;5.404;2023-07-20T03:25:56;17.90;99.90
13049;DHT22;6591;51.446;5.404;2023-07-20T03:28:30;17.90;99.90
13049;DHT22;6591;51.446;5.404;2023-07-20T03:31:10;17.80;99.90
13049;DHT22;6591;51.446;5.404;2023-07-20T03:33:43;18.00;99.90
13049;DHT22;6591;51.446;5.404;2023-07-20T03:36:10;19.70;99.90
13049;DHT22;6591;51.446;5.404;2023-07-20T03:38:37;17.90;99.90
13049;DHT22;6591;51.446;5.404;2023-07-20T03:41:13;17.90;99.90
13049;DHT22;6591;51.446;5.404;2023-07-20T03:43:43;17.80;99.90
13049;DHT22;6591;51.446;5.404;2023-07-20T03:46:15;17.90;99.90
13049;DHT22;6591;51.446;5.404;2023-07-20T03:48:45;18.10;99.90
13049;DHT22;6591;51.446;5.404;2023-07-20T03:51:13;18.20;99.90
13049;DHT22;6591;51.446;5.404;2023-07-20T03:53:50;17.90;99.90
13049;DHT22;6591;51.446;5.404;2023-07-20T03:56:22;17.90;99.90
13049;DHT22;6591;51.446;5.404;2023-07-20T03:58:50;17.90;99.90
13049;DHT22;6591;51.446;5.404;2023-07-20T04:01:17;18.60;99.90
13049;DHT22;6591;51.446;5.404;2023-07-20T04:03:44;17.90;99.90
13049;DHT22;6591;51.446;5.404;2023-07-20T04:06:15;17.90;99.90
13049;DHT22;6591;51.446;5.404;2023-07-20T04:08:44;17.90;99.90
13049;DHT22;6591;51.446;5.404;2023-07-20T04:11:14;17.90;99.90
13049;DHT22;6591;51.446;5.404;2023-07-20T04:13:41;17.90;99.90
13049;DHT22;6591;51.446;5.404;2023-07-20T04:16:08;19.20;99.90
13049;DHT22;6591;51.446;5.404;2023-07-20T04:18:35;18.10;99.90
13049;DHT22;6591;51.446;5.404;2023-07-20T04:21:02;18.90;99.90
13049;DHT22;6591;51.446;5.404;2023-07-20T04:23:29;18.00;99.90
13049;DHT22;6591;51.446;5.404;2023-07-20T04:25:57;19.30;99.90
13049;DHT22;6591;51.446;5.404;2023-07-20T04:28:24;17.90;99.90
13049;DHT22;6591;51.446;5.404;2023-07-20T04:30:52;17.80;99.90
13049;DHT22;6591;51.446;5.404;2023-07-20T04:33:21;17.80;99.90
13049;DHT22;6591;51.446;5.404;2023-07-20T04:35:52;17.80;99.90
13049;DHT22;6591;51.446;5.404;2023-07-20T04:38:30;17.80;99.90
13049;DHT22;6591;51.446;5.404;2023-07-20T04:41:12;17.70;99.90
13049;DHT22;6591;51.446;5.404;2023-07-20T04:43:43;17.70;99.90
13049;DHT22;6591;51.446;5.404;2023-07-20T04:46:13;17.70;99.90
13049;DHT22;6591;51.446;5.404;2023-07-20T04:48:41;19.00;99.90
13049;DHT22;6591;51.446;5.404;2023-07-20T04:51:09;17.80;99.90
13049;DHT22;6591;51.446;5.404;2023-07-20T04:53:37;17.70;99.90
13049;DHT22;6591;51.446;5.404;2023-07-20T04:56:06;17.80;99.90
13049;DHT22;6591;51.446;5.404;2023-07-20T04:58:35;17.80;99.90
13049;DHT22;6591;51.446;5.404;2023-07-20T05:01:02;18.80;99.90
13049;DHT22;6591;51.446;5.404;2023-07-20T05:03:30;19.50;99.90
13049;DHT22;6591;51.446;5.404;2023-07-20T05:05:58;17.80;99.90
13049;DHT22;6591;51.446;5.404;2023-07-20T05:08:25;17.80;99.90
13049;DHT22;6591;51.446;5.404;2023-07-20T05:10:53;17.80;99.90
13049;DHT22;6591;51.446;5.404;2023-07-20T05:13:28;19.70;99.90
13049;DHT22;6591;51.446;5.404;2023-07-20T05:15:56;17.80;99.90
13049;DHT22;6591;51.446;5.404;2023-07-20T05:18:25;19.70;99.90
13049;DHT22;6591;51.446;5.404;2023-07-20T05:20:52;17.80;99.90
13049;DHT22;6591;51.446;5.404;2023-07-20T05:23:28;17.80;99.90
13049;DHT22;6591;51.446;5.404;2023-07-20T05:25:57;16.80;99.90
13049;DHT22;6591;51.446;5.404;2023-07-20T05:28:26;17.90;99.90
13049;DHT22;6591;51.446;5.404;2023-07-20T05:30:54;19.50;99.90
13049;DHT22;6591;51.446;5.404;2023-07-20T05:33:22;18.00;99.90
13049;DHT22;6591;51.446;5.404;2023-07-20T05:35:49;18.10;99.90
13049;DHT22;6591;51.446;5.404;2023-07-20T05:38:17;18.10;99.90
13049;DHT22;6591;51.446;5.404;2023-07-20T05:40:44;18.20;99.90
13049;DHT22;6591;51.446;5.404;2023-07-20T05:43:12;19.30;99.90
13049;DHT22;6591;51.446;5.404;2023-07-20T05:45:45;18.80;99.90
13049;DHT22;6591;51.446;5.404;2023-07-20T05:48:13;18.40;99.90
13049;DHT22;6591;51.446;5.404;2023-07-20T05:50:43;18.20;99.90
13049;DHT22;6591;51.446;5.404;2023-07-20T05:53:11;20.20;99.90
13049;DHT22;6591;51.446;5.404;2023-07-20T05:55:38;18.30;99.90
13049;DHT22;6591;51.446;5.404;2023-07-20T05:58:07;18.30;99.90
13049;DHT22;6591;51.446;5.404;2023-07-20T06:00:34;17.40;99.90
13049;DHT22;6591;51.446;5.404;2023-07-20T06:03:02;20.00;99.90
13049;DHT22;6591;51.446;5.404;2023-07-20T06:05:30;19.50;99.90
13049;DHT22;6591;51.446;5.404;2023-07-20T06:07:59;18.60;99.90
13049;DHT22;6591;51.446;5.404;2023-07-20T06:10:27;20.20;99.90
13049;DHT22;6591;51.446;5.404;2023-07-20T06:12:54;18.80;99.90
13049;DHT22;6591;51.446;5.404;2023-07-20T06:15:32;18.90;99.90
13049;DHT22;6591;51.446;5.404;2023-07-20T06:18:02;19.10;99.90
13049;DHT22;6591;51.446;5.404;2023-07-20T06:20:30;17.50;99.90
13049;DHT22;6591;51.446;5.404;2023-07-20T06:22:57;19.50;99.90
13049;DHT22;6591;51.446;5.404;2023-07-20T06:25:24;19.50;99.90
13049;DHT22;6591;51.446;5.404;2023-07-20T06:27:52;19.80;99.90
13049;DHT22;6591;51.446;5.404;2023-07-20T06:30:20;19.80;99.90
13049;DHT22;6591;51.446;5.404;2023-07-20T06:32:48;20.00;99.90
13049;DHT22;6591;51.446;5.404;2023-07-20T06:35:16;20.20;99.90
13049;DHT22;6591;51.446;5.404;2023-07-20T06:37:44;20.40;99.90
13049;DHT22;6591;51.446;5.404;2023-07-20T06:40:11;20.50;99.90
13049;DHT22;6591;51.446;5.404;2023-07-20T06:42:42;19.70;99.90
13049;DHT22;6591;51.446;5.404;2023-07-20T06:45:11;20.70;99.90
13049;DHT22;6591;51.446;5.404;2023-07-20T06:47:39;22.20;99.90
13049;DHT22;6591;51.446;5.404;2023-07-20T06:50:07;20.80;99.90
13049;DHT22;6591;51.446;5.404;2023-07-20T06:52:35;20.80;99.90
13049;DHT22;6591;51.446;5.404;2023-07-20T06:55:03;20.90;99.90
13049;DHT22;6591;51.446;5.404;2023-07-20T06:57:32;20.90;99.90
13049;DHT22;6591;51.446;5.404;2023-07-20T06:59:59;21.00;99.90
13049;DHT22;6591;51.446;5.404;2023-07-20T07:02:26;21.00;99.90
13049;DHT22;6591;51.446;5.404;2023-07-20T07:04:53;21.00;99.90
13049;DHT22;6591;51.446;5.404;2023-07-20T07:07:25;21.20;99.90
13049;DHT22;6591;51.446;5.404;2023-07-20T07:09:54;21.30;99.90
13049;DHT22;6591;51.446;5.404;2023-07-20T07:12:21;21.50;99.90
13049;DHT22;6591;51.446;5.404;2023-07-20T07:14:48;21.60;99.90
13049;DHT22;6591;51.446;5.404;2023-07-20T07:17:15;21.70;99.90
13049;DHT22;6591;51.446;5.404;2023-07-20T07:19:46;21.90;99.60
13049;DHT22;6591;51.446;5.404;2023-07-20T07:22:15;21.90;99.40
13049;DHT22;6591;51.446;5.404;2023-07-20T07:24:42;22.00;99.00
13049;DHT22;6591;51.446;5.404;2023-07-20T07:27:10;22.10;98.90
13049;DHT22;6591;51.446;5.404;2023-07-20T07:29:37;22.20;98.80
13049;DHT22;6591;51.446;5.404;2023-07-20T07:32:05;22.30;98.80
13049;DHT22;6591;51.446;5.404;2023-07-20T07:34:32;22.70;99.10
13049;DHT22;6591;51.446;5.404;2023-07-20T07:37:02;22.90;98.60
13049;DHT22;6591;51.446;5.404;2023-07-20T07:39:30;23.20;97.90
13049;DHT22;6591;51.446;5.404;2023-07-20T07:42:01;23.60;97.80
13049;DHT22;6591;51.446;5.404;2023-07-20T07:44:28;23.90;97.10
13049;DHT22;6591;51.446;5.404;2023-07-20T07:46:55;24.00;96.40
13049;DHT22;6591;51.446;5.404;2023-07-20T07:49:22;24.60;95.80
13049;DHT22;6591;51.446;5.404;2023-07-20T07:51:51;24.90;95.20
13049;DHT22;6591;51.446;5.404;2023-07-20T07:54:18;25.20;94.20
13049;DHT22;6591;51.446;5.404;2023-07-20T07:56:45;25.40;94.00
13049;DHT22;6591;51.446;5.404;2023-07-20T07:59:12;25.40;93.70
13049;DHT22;6591;51.446;5.404;2023-07-20T08:01:39;25.50;93.30
13049;DHT22;6591;51.446;5.404;2023-07-20T08:04:06;25.60;93.20
13049;DHT22;6591;51.446;5.404;2023-07-20T08:06:34;25.60;93.10
13049;DHT22;6591;51.446;5.404;2023-07-20T08:09:01;25.60;93.20
13049;DHT22;6591;51.446;5.404;2023-07-20T08:11:29;25.70;93.20
13049;DHT22;6591;51.446;5.404;2023-07-20T08:13:57;25.80;92.90
13049;DHT22;6591;51.446;5.404;2023-07-20T08:16:24;26.10;92.80
13049;DHT22;6591;51.446;5.404;2023-07-20T08:18:52;26.30;92.10
13049;DHT22;6591;51.446;5.404;2023-07-20T08:21:19;26.50;91.80
13049;DHT22;6591;51.446;5.404;2023-07-20T08:23:46;26.60;91.50
13049;DHT22;6591;51.446;5.404;2023-07-20T08:26:14;26.90;91.20
13049;DHT22;6591;51.446;5.404;2023-07-20T08:28:44;27.20;90.90
13049;DHT22;6591;51.446;5.404;2023-07-20T08:31:11;27.30;90.10
13049;DHT22;6591;51.446;5.404;2023-07-20T08:33:39;27.40;89.30
13049;DHT22;6591;51.446;5.404;2023-07-20T08:36:06;27.50;88.80
13049;DHT22;6591;51.446;5.404;2023-07-20T08:38:38;27.60;86.10
13049;DHT22;6591;51.446;5.404;2023-07-20T08:41:05;27.50;84.00
13049;DHT22;6591;51.446;5.404;2023-07-20T08:43:33;27.40;83.00
13049;DHT22;6591;51.446;5.404;2023-07-20T08:46:02;27.30;82.90
13049;DHT22;6591;51.446;5.404;2023-07-20T08:48:31;27.30;82.40
13049;DHT22;6591;51.446;5.404;2023-07-20T08:50:58;27.30;82.40
13049;DHT22;6591;51.446;5.404;2023-07-20T08:53:28;27.30;82.10
13049;DHT22;6591;51.446;5.404;2023-07-20T08:55:59;27.30;82.70
13049;DHT22;6591;51.446;5.404;2023-07-20T08:58:29;27.40;83.10
13049;DHT22;6591;51.446;5.404;2023-07-20T09:00:57;27.60;82.90
13049;DHT22;6591;51.446;5.404;2023-07-20T09:03:28;27.90;82.70
13049;DHT22;6591;51.446;5.404;2023-07-20T09:05:55;28.10;81.30
13049;DHT22;6591;51.446;5.404;2023-07-20T09:08:25;28.30;81.10
13049;DHT22;6591;51.446;5.404;2023-07-20T09:10:54;28.50;80.80
13049;DHT22;6591;51.446;5.404;2023-07-20T09:13:22;28.60;80.10
13049;DHT22;6591;51.446;5.404;2023-07-20T09:15:57;28.70;79.90
13049;DHT22;6591;51.446;5.404;2023-07-20T09:18:27;28.80;78.00
13049;DHT22;6591;51.446;5.404;2023-07-20T09:21:05;28.90;78.40
13049;DHT22;6591;51.446;5.404;2023-07-20T09:23:38;29.00;76.70
13049;DHT22;6591;51.446;5.404;2023-07-20T09:26:11;29.20;76.90
13049;DHT22;6591;51.446;5.404;2023-07-20T09:28:43;29.40;76.20
13049;DHT22;6591;51.446;5.404;2023-07-20T09:31:18;29.70;75.70
13049;DHT22;6591;51.446;5.404;2023-07-20T09:33:47;29.80;73.60
13049;DHT22;6591;51.446;5.404;2023-07-20T09:36:18;30.10;73.90
13049;DHT22;6591;51.446;5.404;2023-07-20T09:39:05;30.20;73.70
13049;DHT22;6591;51.446;5.404;2023-07-20T09:41:40;30.50;73.70
13049;DHT22;6591;51.446;5.404;2023-07-20T09:44:16;30.80;71.50
13049;DHT22;6591;51.446;5.404;2023-07-20T09:46:47;31.00;70.80
13049;DHT22;6591;51.446;5.404;2023-07-20T09:49:18;31.00;70.30
13049;DHT22;6591;51.446;5.404;2023-07-20T09:51:48;31.00;69.40
13049;DHT22;6591;51.446;5.404;2023-07-20T09:54:17;30.90;68.20
13049;DHT22;6591;51.446;5.404;2023-07-20T09:56:47;30.70;68.40
13049;DHT22;6591;51.446;5.404;2023-07-20T09:59:15;30.60;68.00
13049;DHT22;6591;51.446;5.404;2023-07-20T10:01:43;30.50;67.60
13049;DHT22;6591;51.446;5.404;2023-07-20T10:04:14;30.40;67.10
13049;DHT22;6591;51.446;5.404;2023-07-20T10:06:46;30.40;66.90
13049;DHT22;6591;51.446;5.404;2023-07-20T10:09:16;30.50;66.90
13049;DHT22;6591;51.446;5.404;2023-07-20T10:11:48;30.60;67.10
13049;DHT22;6591;51.446;5.404;2023-07-20T10:14:41;30.60;66.10
13049;DHT22;6591;51.446;5.404;2023-07-20T10:17:16;30.60;65.60
13049;DHT22;6591;51.446;5.404;2023-07-20T10:19:47;30.70;65.60
13049;DHT22;6591;51.446;5.404;2023-07-20T10:22:25;29.90;63.80
13049;DHT22;6591;51.446;5.404;2023-07-20T10:24:54;30.90;64.60
13049;DHT22;6591;51.446;5.404;2023-07-20T10:27:23;31.00;63.60
13049;DHT22;6591;51.446;5.404;2023-07-20T10:29:52;29.70;63.30
13049;DHT22;6591;51.446;5.404;2023-07-20T10:32:22;31.30;64.40
13049;DHT22;6591;51.446;5.404;2023-07-20T10:34:52;31.50;62.00
13049;DHT22;6591;51.446;5.404;2023-07-20T10:37:48;31.60;59.70
13049;DHT22;6591;51.446;5.404;2023-07-20T10:40:41;31.40;59.60
13049;DHT22;6591;51.446;5.404;2023-07-20T10:44:08;31.30;57.80
13049;DHT22;6591;51.446;5.404;2023-07-20T10:46:44;30.90;59.80
13049;DHT22;6591;51.446;5.404;2023-07-20T10:49:23;30.60;60.00
13049;DHT22;6591;51.446;5.404;2023-07-20T10:51:58;30.40;60.80
13049;DHT22;6591;51.446;5.404;2023-07-20T10:56:55;29.90;61.60
13049;DHT22;6591;51.446;5.404;2023-07-20T11:02:10;29.60;62.40
13049;DHT22;6591;51.446;5.404;2023-07-20T11:04:41;29.50;62.00
13049;DHT22;6591;51.446;5.404;2023-07-20T11:07:16;29.40;62.60
13049;DHT22;6591;51.446;5.404;2023-07-20T11:10:15;29.40;62.40
13049;DHT22;6591;51.446;5.404;2023-07-20T11:16:04;29.40;62.60
13049;DHT22;6591;51.446;5.404;2023-07-20T11:18:34;29.50;63.50
13049;DHT22;6591;51.446;5.404;2023-07-20T11:21:08;29.50;61.90
13049;DHT22;6591;51.446;5.404;2023-07-20T11:23:38;29.50;61.90
13049;DHT22;6591;51.446;5.404;2023-07-20T11:26:06;29.10;61.00
13049;DHT22;6591;51.446;5.404;2023-07-20T11:28:34;29.00;61.50
13049;DHT22;6591;51.446;5.404;2023-07-20T11:31:01;28.90;62.00
13049;DHT22;6591;51.446;5.404;2023-07-20T11:33:29;28.80;61.50
13049;DHT22;6591;51.446;5.404;2023-07-20T11:35:56;28.70;61.50
13049;DHT22;6591;51.446;5.404;2023-07-20T11:38:24;28.50;61.10
13049;DHT22;6591;51.446;5.404;2023-07-20T11:40:51;28.30;61.10
13049;DHT22;6591;51.446;5.404;2023-07-20T11:43:19;28.10;61.40
13049;DHT22;6591;51.446;5.404;2023-07-20T11:45:50;28.00;62.30
13049;DHT22;6591;51.446;5.404;2023-07-20T11:48:17;27.90;62.90
13049;DHT22;6591;51.446;5.404;2023-07-20T11:50:44;28.00;63.10
13049;DHT22;6591;51.446;5.404;2023-07-20T11:53:11;27.50;62.10
13049;DHT22;6591;51.446;5.404;2023-07-20T11:55:42;28.10;62.30
13049;DHT22;6591;51.446;5.404;2023-07-20T11:58:09;28.10;62.40
13049;DHT22;6591;51.446;5.404;2023-07-20T12:00:38;28.20;62.60
13049;DHT22;6591;51.446;5.404;2023-07-20T12:03:09;28.20;61.70
13049;DHT22;6591;51.446;5.404;2023-07-20T12:05:39;28.30;62.00
13049;DHT22;6591;51.446;5.404;2023-07-20T12:08:26;28.30;62.30
13049;DHT22;6591;51.446;5.404;2023-07-20T12:10:53;28.30;62.50
13049;DHT22;6591;51.446;5.404;2023-07-20T12:13:20;28.30;61.90
13049;DHT22;6591;51.446;5.404;2023-07-20T12:15:48;28.30;62.00
13049;DHT22;6591;51.446;5.404;2023-07-20T12:18:15;28.30;62.10
13049;DHT22;6591;51.446;5.404;2023-07-20T12:20:42;28.30;61.90
13049;DHT22;6591;51.446;5.404;2023-07-20T12:23:13;28.30;61.30
13049;DHT22;6591;51.446;5.404;2023-07-20T12:25:47;28.30;61.20
13049;DHT22;6591;51.446;5.404;2023-07-20T12:28:16;28.20;61.10
13049;DHT22;6591;51.446;5.404;2023-07-20T12:30:46;28.60;62.00
13049;DHT22;6591;51.446;5.404;2023-07-20T12:33:23;28.10;61.90
13049;DHT22;6591;51.446;5.404;2023-07-20T12:35:51;28.00;62.00
13049;DHT22;6591;51.446;5.404;2023-07-20T12:38:28;26.60;61.60
13049;DHT22;6591;51.446;5.404;2023-07-20T12:41:23;28.10;62.70
13049;DHT22;6591;51.446;5.404;2023-07-20T12:44:02;26.50;61.20
13049;DHT22;6591;51.446;5.404;2023-07-20T12:46:31;27.90;62.40
13049;DHT22;6591;51.446;5.404;2023-07-20T12:49:02;28.00;62.20
13049;DHT22;6591;51.446;5.404;2023-07-20T12:51:32;27.90;62.50
13049;DHT22;6591;51.446;5.404;2023-07-20T12:54:02;27.90;62.30
13049;DHT22;6591;51.446;5.404;2023-07-20T12:56:29;27.60;61.90
13049;DHT22;6591;51.446;5.404;2023-07-20T12:59:07;28.00;62.90
13049;DHT22;6591;51.446;5.404;2023-07-20T13:01:38;28.00;63.40
13049;DHT22;6591;51.446;5.404;2023-07-20T13:04:10;28.10;62.90
13049;DHT22;6591;51.446;5.404;2023-07-20T13:06:43;28.30;62.70
13049;DHT22;6591;51.446;5.404;2023-07-20T13:09:14;27.40;61.20
13049;DHT22;6591;51.446;5.404;2023-07-20T13:11:44;28.40;62.20
13049;DHT22;6591;51.446;5.404;2023-07-20T13:14:12;28.40;61.30
13049;DHT22;6591;51.446;5.404;2023-07-20T13:16:39;28.60;61.20
13049;DHT22;6591;51.446;5.404;2023-07-20T13:19:07;28.60;61.20
13049;DHT22;6591;51.446;5.404;2023-07-20T13:21:34;28.70;61.20
13049;DHT22;6591;51.446;5.404;2023-07-20T13:24:01;28.70;61.00
13049;DHT22;6591;51.446;5.404;2023-07-20T13:26:30;28.80;60.60
13049;DHT22;6591;51.446;5.404;2023-07-20T13:28:57;28.80;60.30
13049;DHT22;6591;51.446;5.404;2023-07-20T13:31:25;28.90;60.00
13049;DHT22;6591;51.446;5.404;2023-07-20T13:33:54;29.00;60.50
13049;DHT22;6591;51.446;5.404;2023-07-20T13:36:25;29.20;61.30
13049;DHT22;6591;51.446;5.404;2023-07-20T13:38:52;29.60;61.20
13049;DHT22;6591;51.446;5.404;2023-07-20T13:41:20;30.10;60.90
13049;DHT22;6591;51.446;5.404;2023-07-20T13:43:51;29.70;59.60
13049;DHT22;6591;51.446;5.404;2023-07-20T13:46:20;31.10;58.10
13049;DHT22;6591;51.446;5.404;2023-07-20T13:48:56;31.40;58.00
13049;DHT22;6591;51.446;5.404;2023-07-20T13:51:27;31.60;56.60
13049;DHT22;6591;51.446;5.404;2023-07-20T13:54:06;31.90;56.90
13049;DHT22;6591;51.446;5.404;2023-07-20T13:56:37;32.10;55.40
13049;DHT22;6591;51.446;5.404;2023-07-20T13:59:23;32.20;54.80
13049;DHT22;6591;51.446;5.404;2023-07-20T14:01:52;32.30;55.00
13049;DHT22;6591;51.446;5.404;2023-07-20T14:04:40;32.50;54.90
13049;DHT22;6591;51.446;5.404;2023-07-20T14:07:09;30.90;53.60
13049;DHT22;6591;51.446;5.404;2023-07-20T14:09:36;32.40;53.70
13049;DHT22;6591;51.446;5.404;2023-07-20T14:12:24;32.30;53.70
13049;DHT22;6591;51.446;5.404;2023-07-20T14:14:53;32.10;53.60
13049;DHT22;6591;51.446;5.404;2023-07-20T14:17:25;32.10;54.90
13049;DHT22;6591;51.446;5.404;2023-07-20T14:19:58;32.10;55.50
13049;DHT22;6591;51.446;5.404;2023-07-20T14:22:26;32.40;55.60
13049;DHT22;6591;51.446;5.404;2023-07-20T14:24:53;32.90;55.90
13049;DHT22;6591;51.446;5.404;2023-07-20T14:27:21;33.50;56.20
13049;DHT22;6591;51.446;5.404;2023-07-20T14:29:48;34.10;55.60
13049;DHT22;6591;51.446;5.404;2023-07-20T14:32:16;34.70;54.60
13049;DHT22;6591;51.446;5.404;2023-07-20T14:34:43;35.20;53.10
13049;DHT22;6591;51.446;5.404;2023-07-20T14:37:10;35.50;51.10
13049;DHT22;6591;51.446;5.404;2023-07-20T14:39:40;35.50;49.70
13049;DHT22;6591;51.446;5.404;2023-07-20T14:42:07;35.30;49.20
13049;DHT22;6591;51.446;5.404;2023-07-20T14:44:34;35.10;48.80
13049;DHT22;6591;51.446;5.404;2023-07-20T14:47:03;34.80;48.50
13049;DHT22;6591;51.446;5.404;2023-07-20T14:49:41;34.40;48.40
13049;DHT22;6591;51.446;5.404;2023-07-20T14:52:08;33.90;48.40
13049;DHT22;6591;51.446;5.404;2023-07-20T14:54:38;33.70;48.70
13049;DHT22;6591;51.446;5.404;2023-07-20T14:57:06;33.30;48.80
13049;DHT22;6591;51.446;5.404;2023-07-20T14:59:41;32.90;49.20
13049;DHT22;6591;51.446;5.404;2023-07-20T15:02:11;32.60;49.30
13049;DHT22;6591;51.446;5.404;2023-07-20T15:04:49;32.10;49.30
13049;DHT22;6591;51.446;5.404;2023-07-20T15:07:21;31.70;49.70
13049;DHT22;6591;51.446;5.404;2023-07-20T15:09:48;31.30;49.90
13049;DHT22;6591;51.446;5.404;2023-07-20T15:12:16;30.90;50.30
13049;DHT22;6591;51.446;5.404;2023-07-20T15:15:02;30.50;50.70
13049;DHT22;6591;51.446;5.404;2023-07-20T15:17:45;30.10;51.30
13049;DHT22;6591;51.446;5.404;2023-07-20T15:20:13;29.70;52.10
13049;DHT22;6591;51.446;5.404;2023-07-20T15:22:41;29.30;53.10
13049;DHT22;6591;51.446;5.404;2023-07-20T15:25:15;29.00;53.60
13049;DHT22;6591;51.446;5.404;2023-07-20T15:27:42;28.60;53.80
13049;DHT22;6591;51.446;5.404;2023-07-20T15:30:17;28.20;54.30
13049;DHT22;6591;51.446;5.404;2023-07-20T15:32:51;27.90;55.20
13049;DHT22;6591;51.446;5.404;2023-07-20T15:35:21;27.60;55.70
13049;DHT22;6591;51.446;5.404;2023-07-20T15:37:48;27.30;56.50
13049;DHT22;6591;51.446;5.404;2023-07-20T15:40:16;27.10;56.60
13049;DHT22;6591;51.446;5.404;2023-07-20T15:42:43;26.70;57.40
13049;DHT22;6591;51.446;5.404;2023-07-20T15:45:18;26.60;57.70
13049;DHT22;6591;51.446;5.404;2023-07-20T15:47:49;24.70;57.10
13049;DHT22;6591;51.446;5.404;2023-07-20T15:50:17;26.40;58.90
13049;DHT22;6591;51.446;5.404;2023-07-20T15:52:49;27.00;59.30
13049;DHT22;6591;51.446;5.404;2023-07-20T15:55:17;26.40;59.30
13049;DHT22;6591;51.446;5.404;2023-07-20T15:57:52;26.20;58.90
13049;DHT22;6591;51.446;5.404;2023-07-20T16:00:49;26.20;58.70
13049;DHT22;6591;51.446;5.404;2023-07-20T16:03:29;26.10;59.00
13049;DHT22;6591;51.446;5.404;2023-07-20T16:06:13;26.10;59.20
13049;DHT22;6591;51.446;5.404;2023-07-20T16:08:41;26.20;59.90
13049;DHT22;6591;51.446;5.404;2023-07-20T16:11:12;26.10;59.10
13049;DHT22;6591;51.446;5.404;2023-07-20T16:13:40;26.10;59.50
13049;DHT22;6591;51.446;5.404;2023-07-20T16:16:08;26.20;59.50
13049;DHT22;6591;51.446;5.404;2023-07-20T16:18:38;26.20;59.50
13049;DHT22;6591;51.446;5.404;2023-07-20T16:21:08;26.00;59.30
13049;DHT22;6591;51.446;5.404;2023-07-20T16:24:00;25.00;58.40